Time;durP1;ratioP1;P1;durP2;ratioP2;P2;SDS_P1;SDS_P2;PMS_P1;PMS_P2;Temp;Humidity;BMP_temperature;BMP_pressure;BME280_temperature;BME280_humidity;BME280_pressure;Samples;Min_cycle;Max_cycle;Signal;HPM_P1;HPM_P2
2023/10/04 00:00:20;;;;;;;7.40;3.05;;;14.50;99.90;;;;;;5043723;28;20440;-77
2023/10/04 00:02:53;;;;;;;7.22;2.58;;;14.50;99.90;;;;;;5040476;28;20098;-77
2023/10/04 00:05:24;;;;;;;5.00;2.65;;;14.60;99.90;;;;;;5047702;28;20077;-76
2023/10/04 00:07:55;;;;;;;5.05;2.40;;;14.60;99.90;;;;;;5032788;28;20048;-76
2023/10/04 00:10:25;;;;;;;4.78;2.13;;;14.60;99.90;;;;;;5045727;28;20049;-76
2023/10/04 00:12:53;;;;;;;5.13;2.65;;;14.60;99.90;;;;;;5044096;28;20087;-77
2023/10/04 00:15:21;;;;;;;7.65;2.75;;;14.70;99.90;;;;;;5042145;28;20046;-77
2023/10/04 00:17:52;;;;;;;5.20;2.30;;;14.70;99.90;;;;;;5026318;28;20057;-77
2023/10/04 00:20:19;;;;;;;;;;;14.70;99.90;;;;;;5051936;28;20037;-77
2023/10/04 00:22:47;;;;;;;11.20;5.25;;;14.70;99.90;;;;;;5051178;28;20345;-77
2023/10/04 00:25:22;;;;;;;7.32;3.95;;;14.70;99.90;;;;;;5043601;28;20041;-76
2023/10/04 00:27:52;;;;;;;6.60;3.30;;;14.70;99.90;;;;;;5048693;28;20119;-77
2023/10/04 00:30:19;;;;;;;5.72;3.10;;;14.70;99.90;;;;;;5042057;28;20492;-76
2023/10/04 00:32:46;;;;;;;7.28;3.75;;;14.70;99.90;;;;;;5037930;28;20119;-76
2023/10/04 00:35:15;;;;;;;8.95;3.88;;;14.80;99.90;;;;;;5049028;28;20091;-76
2023/10/04 00:37:42;;;;;;;6.57;2.95;;;14.80;99.90;;;;;;5050099;28;20048;-76
2023/10/04 00:40:14;;;;;;;6.10;2.92;;;14.80;99.90;;;;;;5041817;28;20045;-77
2023/10/04 00:42:41;;;;;;;5.20;2.83;;;14.90;99.90;;;;;;5046117;28;20048;-77
2023/10/04 00:45:13;;;;;;;7.30;2.58;;;14.90;99.90;;;;;;5039794;28;20095;-77
2023/10/04 00:47:47;;;;;;;5.45;2.25;;;14.90;99.90;;;;;;5045279;28;20080;-77
2023/10/04 00:50:16;;;;;;;4.15;1.85;;;14.90;99.90;;;;;;5047043;28;20080;-77
2023/10/04 00:52:51;;;;;;;4.05;2.00;;;14.80;99.90;;;;;;5043167;28;20129;-77
2023/10/04 00:55:19;;;;;;;7.95;2.42;;;14.80;99.90;;;;;;5034951;28;20076;-77
2023/10/04 00:57:48;;;;;;;4.43;1.75;;;14.80;99.90;;;;;;5043999;28;20114;-77
2023/10/04 01:00:17;;;;;;;4.43;2.20;;;14.90;99.90;;;;;;5037851;28;20115;-76
2023/10/04 01:02:44;;;;;;;3.33;1.77;;;14.80;99.90;;;;;;5045896;28;20036;-77
2023/10/04 01:05:13;;;;;;;4.40;1.90;;;14.80;99.90;;;;;;5045569;28;20064;-77
2023/10/04 01:07:41;;;;;;;3.25;2.05;;;14.80;99.90;;;;;;5048223;28;20041;-77
2023/10/04 01:10:14;;;;;;;3.33;1.90;;;14.80;99.90;;;;;;5040703;28;20084;-77
2023/10/04 01:12:44;;;;;;;6.00;2.38;;;14.80;99.90;;;;;;5044785;28;20047;-77
2023/10/04 01:17:53;;;;;;;4.22;1.98;;;14.80;99.90;;;;;;5045549;28;20040;-77
2023/10/04 01:20:23;;;;;;;2.25;1.63;;;14.90;99.90;;;;;;5046386;28;20044;-77
2023/10/04 01:22:51;;;;;;;3.33;1.83;;;14.90;99.90;;;;;;5047386;28;20041;-77
2023/10/04 01:25:19;;;;;;;2.88;1.85;;;14.90;99.90;;;;;;5039002;28;20516;-77
2023/10/04 01:27:46;;;;;;;5.53;2.00;;;14.90;99.90;;;;;;5042928;28;20420;-77
2023/10/04 01:30:13;;;;;;;3.67;1.90;;;14.90;99.90;;;;;;5037619;28;20099;-77
2023/10/04 01:32:40;;;;;;;6.65;1.75;;;14.90;99.90;;;;;;5051652;28;20056;-77
2023/10/04 01:35:12;;;;;;;5.13;2.10;;;14.80;99.90;;;;;;5044032;28;20054;-77
2023/10/04 01:37:39;;;;;;;3.47;1.73;;;14.80;99.90;;;;;;5047863;28;20045;-77
2023/10/04 01:40:12;;;;;;;2.47;1.60;;;14.80;99.90;;;;;;5037311;28;20548;-77
2023/10/04 01:42:40;;;;;;;7.20;1.90;;;14.80;99.90;;;;;;5046348;28;20044;-77
2023/10/04 01:45:11;;;;;;;3.67;1.75;;;14.70;99.90;;;;;;5042053;28;20140;-77
2023/10/04 01:47:41;;;;;;;3.25;2.38;;;14.70;99.90;;;;;;5050237;28;20060;-76
2023/10/04 01:50:09;;;;;;;6.80;2.30;;;14.80;99.90;;;;;;5027936;28;20406;-77
2023/10/04 01:52:39;;;;;;;2.83;1.48;;;14.80;99.90;;;;;;5047331;28;20077;-77
2023/10/04 01:55:09;;;;;;;3.63;2.00;;;14.80;99.90;;;;;;5036229;28;20042;-76
2023/10/04 01:57:41;;;;;;;6.30;1.83;;;14.80;99.90;;;;;;5045534;28;20304;-76
2023/10/04 02:00:16;;;;;;;5.53;2.00;;;14.80;99.90;;;;;;5047203;28;20416;-77
2023/10/04 02:02:44;;;;;;;3.63;1.88;;;14.80;99.90;;;;;;5028583;28;20044;-76
2023/10/04 02:05:15;;;;;;;2.67;1.63;;;14.80;99.90;;;;;;5042245;28;20442;-77
2023/10/04 02:07:44;;;;;;;3.75;1.60;;;14.80;99.90;;;;;;5047644;28;20064;-76
2023/10/04 02:10:17;;;;;;;3.85;1.60;;;14.80;99.90;;;;;;5036211;28;20049;-77
2023/10/04 02:12:44;;;;;;;5.47;2.08;;;14.80;99.90;;;;;;5050775;28;20048;-77
2023/10/04 02:15:15;;;;;;;2.83;1.55;;;14.80;99.90;;;;;;5033854;28;20059;-77
2023/10/04 02:17:44;;;;;;;4.50;1.88;;;14.80;99.90;;;;;;5051510;28;20037;-77
2023/10/04 02:20:20;;;;;;;4.72;1.90;;;14.80;99.90;;;;;;5044358;28;20049;-77
2023/10/04 02:22:47;;;;;;;6.30;1.90;;;14.80;99.90;;;;;;5045583;28;20037;-77
2023/10/04 02:25:15;;;;;;;4.65;1.95;;;14.80;99.90;;;;;;5038168;28;20647;-77
2023/10/04 02:27:42;;;;;;;3.67;1.73;;;14.80;99.90;;;;;;5050632;28;20048;-77
2023/10/04 02:30:26;;;;;;;4.25;1.45;;;14.80;99.90;;;;;;5050458;28;20072;-76
2023/10/04 02:32:54;;;;;;;3.95;1.90;;;14.80;99.90;;;;;;5028587;28;20115;-77
2023/10/04 02:35:25;;;;;;;4.75;1.63;;;14.80;99.90;;;;;;5043711;28;20185;-76
2023/10/04 02:37:58;;;;;;;5.63;2.17;;;14.80;99.90;;;;;;5044369;28;20606;-77
2023/10/04 02:40:32;;;;;;;5.18;2.03;;;14.80;99.90;;;;;;5040665;28;20052;-77
2023/10/04 02:43:00;;;;;;;7.45;2.00;;;14.80;99.90;;;;;;5051302;28;20076;-76
2023/10/04 02:45:29;;;;;;;3.42;1.60;;;14.70;99.90;;;;;;5049865;28;20106;-77
2023/10/04 02:47:56;;;;;;;3.58;2.00;;;14.70;99.90;;;;;;5046374;28;20048;-76
2023/10/04 02:50:24;;;;;;;7.28;1.90;;;14.70;99.90;;;;;;5042943;28;20049;-77
2023/10/04 02:52:51;;;;;;;6.50;2.00;;;14.70;99.90;;;;;;5045333;28;20684;-76
2023/10/04 02:55:19;;;;;;;4.78;2.05;;;14.60;99.90;;;;;;5042648;28;20049;-77
2023/10/04 02:57:50;;;;;;;3.20;1.80;;;14.50;99.90;;;;;;5053446;28;20048;-77
2023/10/04 03:00:19;;;;;;;3.35;1.83;;;14.40;99.90;;;;;;5049988;28;20041;-76
2023/10/04 03:02:50;;;;;;;4.13;1.90;;;14.40;99.90;;;;;;5030576;28;20045;-76
2023/10/04 03:05:20;;;;;;;5.75;2.60;;;14.40;99.90;;;;;;5045859;28;20436;-77
2023/10/04 03:07:50;;;;;;;4.32;1.88;;;14.40;99.90;;;;;;5045208;28;20123;-77
2023/10/04 03:10:24;;;;;;;5.82;2.25;;;14.40;99.90;;;;;;5037115;28;20119;-77
2023/10/04 03:12:56;;;;;;;7.07;2.08;;;14.40;99.90;;;;;;5032625;28;20072;-77
2023/10/04 03:15:23;;;;;;;6.97;2.20;;;14.30;99.90;;;;;;5048893;28;20117;-77
2023/10/04 03:17:53;;;;;;;5.15;2.35;;;14.30;99.90;;;;;;5041639;28;20040;-77
2023/10/04 03:20:23;;;;;;;5.05;2.50;;;14.30;99.90;;;;;;5044669;28;20046;-77
2023/10/04 03:22:51;;;;;;;4.95;2.20;;;14.30;99.90;;;;;;5043691;28;20041;-77
2023/10/04 03:25:20;;;;;;;5.32;2.33;;;14.20;99.90;;;;;;5035609;28;20068;-77
2023/10/04 03:27:47;;;;;;;4.03;2.20;;;14.20;99.90;;;;;;5051813;28;20047;-77
2023/10/04 03:30:15;;;;;;;6.45;2.13;;;14.20;99.90;;;;;;5047278;28;20417;-77
2023/10/04 03:32:44;;;;;;;6.53;2.08;;;14.10;99.90;;;;;;5044899;28;20467;-77
2023/10/04 03:35:14;;;;;;;6.70;1.95;;;14.10;99.90;;;;;;5042098;28;20411;-76
2023/10/04 03:37:54;;;;;;;6.07;2.60;;;14.10;99.90;;;;;;5042382;28;20046;-77
2023/10/04 03:40:22;;;;;;;5.40;2.17;;;14.00;99.90;;;;;;5049150;28;20560;-76
2023/10/04 03:42:49;;;;;;;4.00;2.15;;;14.00;99.90;;;;;;5049588;28;20040;-76
2023/10/04 03:45:20;;;;;;;5.82;2.10;;;14.00;99.90;;;;;;5046257;28;20045;-76
2023/10/04 03:47:50;;;;;;;3.65;1.98;;;13.90;99.90;;;;;;5043022;28;20053;-77
2023/10/04 03:50:17;;;;;;;4.85;2.45;;;13.90;99.90;;;;;;5042360;28;20046;-77
2023/10/04 03:52:46;;;;;;;4.50;2.33;;;13.90;99.90;;;;;;5043816;28;20107;-77
2023/10/04 03:55:13;;;;;;;8.68;2.58;;;13.90;99.90;;;;;;5035977;28;20449;-77
2023/10/04 03:57:42;;;;;;;6.07;2.45;;;13.80;99.90;;;;;;5047361;28;20068;-77
2023/10/04 04:00:11;;;;;;;5.50;2.38;;;13.80;99.90;;;;;;5046202;28;20056;-77
2023/10/04 04:02:39;;;;;;;3.92;1.90;;;13.80;99.90;;;;;;5043830;28;20128;-77
2023/10/04 04:05:14;;;;;;;3.42;1.80;;;13.80;99.90;;;;;;5040121;28;20116;-76
2023/10/04 04:07:41;;;;;;;2.97;1.75;;;13.80;99.90;;;;;;5047859;28;20524;-77
2023/10/04 04:10:14;;;;;;;5.05;2.55;;;13.80;99.90;;;;;;5051655;28;20094;-77
2023/10/04 04:12:42;;;;;;;5.22;2.33;;;13.90;99.90;;;;;;5028823;28;20440;-77
2023/10/04 04:15:10;;;;;;;4.07;2.33;;;13.90;99.90;;;;;;5046221;28;20136;-76
2023/10/04 04:17:37;;;;;;;5.03;2.40;;;14.00;99.90;;;;;;5034529;28;20580;-76
2023/10/04 04:20:08;;;;;;;7.22;3.35;;;14.00;99.90;;;;;;5043556;28;20120;-76
2023/10/04 04:22:35;;;;;;;5.15;2.50;;;14.00;99.90;;;;;;5047260;28;20479;-77
2023/10/04 04:25:03;;;;;;;5.88;2.38;;;14.10;99.90;;;;;;5039250;28;20124;-76
2023/10/04 04:27:30;;;;;;;4.38;2.40;;;14.10;99.90;;;;;;5042826;28;20569;-74
2023/10/04 04:29:57;;;;;;;4.18;2.00;;;14.10;99.90;;;;;;5047238;28;20076;-76
2023/10/04 04:32:26;;;;;;;6.55;2.35;;;14.10;99.90;;;;;;5039559;28;20099;-76
2023/10/04 04:34:54;;;;;;;6.10;2.20;;;14.00;99.90;;;;;;5025166;28;20048;-77
2023/10/04 04:37:27;;;;;;;7.00;2.47;;;14.00;99.90;;;;;;5048723;28;20124;-77
2023/10/04 04:39:53;;;;;;;4.22;1.98;;;14.00;99.90;;;;;;5050666;28;20095;-76
2023/10/04 04:42:35;;;;;;;4.35;2.45;;;14.00;99.90;;;;;;5041855;28;20077;-76
2023/10/04 04:45:09;;;;;;;3.97;2.15;;;14.00;99.90;;;;;;5044235;28;20045;-77
2023/10/04 04:47:37;;;;;;;4.60;2.50;;;14.00;99.90;;;;;;5038536;28;20049;-77
2023/10/04 04:50:04;;;;;;;5.57;2.20;;;14.00;99.90;;;;;;5045962;28;20052;-77
2023/10/04 04:52:31;;;;;;;6.50;2.05;;;14.00;99.90;;;;;;5047785;28;20053;-77
2023/10/04 04:54:58;;;;;;;4.88;2.45;;;14.00;99.90;;;;;;5049715;28;20470;-76
2023/10/04 04:57:25;;;;;;;5.35;3.03;;;14.00;99.90;;;;;;5040683;28;20564;-77
2023/10/04 04:59:55;;;;;;;8.63;2.67;;;14.00;99.90;;;;;;5045395;28;20053;-77
2023/10/04 05:02:25;;;;;;;6.15;2.72;;;14.00;99.90;;;;;;5038108;28;20152;-76
2023/10/04 05:04:52;;;;;;;3.75;2.45;;;14.00;99.90;;;;;;5027382;28;20056;-77
2023/10/04 05:07:19;;;;;;;9.88;3.60;;;14.00;99.90;;;;;;5047285;28;20049;-77
2023/10/04 05:09:46;;;;;;;6.03;2.35;;;14.00;99.90;;;;;;5048252;28;20049;-77
2023/10/04 05:12:12;;;;;;;4.53;2.00;;;14.00;99.90;;;;;;5040656;28;20137;-76
2023/10/04 05:14:39;;;;;;;2.17;1.67;;;14.00;99.90;;;;;;5043100;28;20089;-77
2023/10/04 05:17:06;;;;;;;4.25;2.10;;;14.00;99.90;;;;;;5043208;28;20046;-77
2023/10/04 05:19:33;;;;;;;4.90;2.20;;;14.00;99.90;;;;;;5040193;28;20080;-77
2023/10/04 05:21:59;;;;;;;3.58;2.25;;;14.00;99.90;;;;;;5044657;28;20111;-76
2023/10/04 05:24:26;;;;;;;5.20;2.70;;;14.00;99.90;;;;;;5045886;28;20092;-77
2023/10/04 05:26:53;;;;;;;5.45;3.03;;;14.00;99.90;;;;;;5041980;28;20103;-77
2023/10/04 05:29:19;;;;;;;8.35;3.83;;;14.00;99.90;;;;;;5041293;28;20069;-77
2023/10/04 05:31:47;;;;;;;5.38;2.72;;;14.00;99.90;;;;;;5039598;28;20107;-76
2023/10/04 05:34:14;;;;;;;5.38;3.13;;;13.90;99.90;;;;;;5046103;28;20098;-76
2023/10/04 05:36:41;;;;;;;4.43;2.47;;;13.90;99.90;;;;;;5046639;28;20131;-75
2023/10/04 05:39:11;;;;;;;6.15;2.50;;;13.90;99.90;;;;;;5047524;28;20036;-77
2023/10/04 05:41:38;;;;;;;6.22;2.50;;;13.80;99.90;;;;;;5040007;28;20092;-76
2023/10/04 05:44:04;;;;;;;4.68;1.85;;;13.80;99.90;;;;;;5043968;28;20124;-77
2023/10/04 05:46:31;;;;;;;3.70;1.92;;;13.70;99.90;;;;;;5040225;28;20103;-77
2023/10/04 05:48:58;;;;;;;5.80;2.60;;;13.70;99.90;;;;;;5056778;28;20131;-76
2023/10/04 05:51:27;;;;;;;6.35;2.97;;;13.60;99.90;;;;;;5049196;28;20053;-76
2023/10/04 05:53:54;;;;;;;6.72;2.97;;;13.60;99.90;;;;;;5056425;28;20059;-79
2023/10/04 05:56:25;;;;;;;5.22;2.40;;;13.60;99.90;;;;;;5029245;28;20095;-79
2023/10/04 05:58:52;;;;;;;5.50;2.63;;;13.60;99.90;;;;;;5050424;28;20076;-79
2023/10/04 06:01:19;;;;;;;8.43;2.85;;;13.60;99.90;;;;;;5045872;28;20190;-77
2023/10/04 06:03:46;;;;;;;7.18;3.22;;;13.60;99.90;;;;;;5052508;28;20050;-76
2023/10/04 06:06:13;;;;;;;6.05;2.65;;;13.60;99.90;;;;;;5048435;28;20079;-76
2023/10/04 06:08:40;;;;;;;5.35;2.45;;;13.50;99.90;;;;;;5048260;28;20042;-76
2023/10/04 06:11:06;;;;;;;3.05;2.10;;;13.50;99.90;;;;;;5044301;28;20087;-76
2023/10/04 06:13:34;;;;;;;5.20;2.40;;;13.50;99.90;;;;;;5043622;28;20496;-76
2023/10/04 06:16:01;;;;;;;4.05;2.15;;;13.50;99.90;;;;;;5038075;28;20040;-76
2023/10/04 06:18:31;;;;;;;4.45;2.03;;;13.50;99.90;;;;;;5051816;28;20129;-76
2023/10/04 06:21:00;;;;;;;8.73;2.70;;;13.50;99.90;;;;;;5049796;28;20041;-76
2023/10/04 06:23:30;;;;;;;5.18;2.35;;;13.50;99.90;;;;;;5047123;28;20049;-76
2023/10/04 06:25:58;;;;;;;3.55;2.10;;;13.50;99.90;;;;;;5044149;28;20054;-77
2023/10/04 06:28:24;;;;;;;5.25;2.50;;;13.50;99.90;;;;;;5041746;28;20080;-77
2023/10/04 06:30:52;;;;;;;2.83;1.90;;;13.50;99.90;;;;;;5049803;28;20103;-77
2023/10/04 06:33:19;;;;;;;8.10;2.15;;;13.50;99.90;;;;;;5052528;28;20068;-77
2023/10/04 06:35:47;;;;;;;8.38;2.40;;;13.50;99.90;;;;;;5046840;28;20053;-77
2023/10/04 06:38:15;;;;;;;4.85;2.25;;;13.50;99.90;;;;;;5046164;28;20077;-77
2023/10/04 06:40:42;;;;;;;3.75;1.88;;;13.60;99.90;;;;;;5043253;28;20041;-77
2023/10/04 06:43:14;;;;;;;5.00;2.70;;;13.60;99.90;;;;;;5040270;28;20045;-76
2023/10/04 06:45:41;;;;;;;5.20;2.65;;;13.70;99.90;;;;;;5051245;28;20532;-76
2023/10/04 06:48:09;;;;;;;5.75;2.50;;;13.80;99.90;;;;;;5053501;28;20102;-76
2023/10/04 06:50:38;;;;;;;4.68;2.45;;;13.80;99.90;;;;;;5044990;28;20053;-77
2023/10/04 06:53:06;;;;;;;;;;;13.90;99.90;;;;;;5048623;28;20044;-77
2023/10/04 06:55:34;;;;;;;7.32;3.83;;;14.00;99.90;;;;;;5041886;28;19939;-77
2023/10/04 06:58:01;;;;;;;12.23;6.10;;;14.10;99.90;;;;;;5044233;28;20100;-77
2023/10/04 07:00:30;;;;;;;12.00;6.40;;;14.20;99.90;;;;;;5050167;28;20055;-77
2023/10/04 07:02:59;;;;;;;13.77;7.40;;;14.30;99.90;;;;;;5052434;28;20049;-77
2023/10/04 07:05:35;;;;;;;12.05;7.70;;;14.30;99.90;;;;;;5045569;28;20084;-76
2023/10/04 07:08:05;;;;;;;12.63;7.80;;;14.40;99.90;;;;;;5048808;28;20474;-77
2023/10/04 07:10:33;;;;;;;12.82;7.85;;;14.40;99.90;;;;;;5041438;28;20049;-77
2023/10/04 07:13:02;;;;;;;11.40;7.32;;;14.50;99.90;;;;;;5046463;28;20436;-77
2023/10/04 07:15:35;;;;;;;11.38;7.43;;;14.50;99.90;;;;;;5051640;28;20056;-77
2023/10/04 07:18:07;;;;;;;12.82;6.90;;;14.60;99.90;;;;;;5051619;28;20045;-77
2023/10/04 07:20:35;;;;;;;12.95;7.15;;;14.60;99.90;;;;;;5042073;28;20084;-76
2023/10/04 07:23:05;;;;;;;9.35;7.03;;;14.70;99.90;;;;;;5029758;28;20144;-77
2023/10/04 07:25:34;;;;;;;10.43;7.47;;;14.80;99.90;;;;;;5039133;28;20045;-77
2023/10/04 07:28:04;;;;;;;10.90;6.82;;;14.90;99.90;;;;;;5046990;28;20053;-76
2023/10/04 07:30:33;;;;;;;13.32;8.07;;;14.90;99.90;;;;;;5050249;28;20468;-76
2023/10/04 07:33:01;;;;;;;15.60;7.85;;;14.90;99.90;;;;;;5039752;28;20061;-77
2023/10/04 07:35:30;;;;;;;12.95;7.50;;;14.90;99.90;;;;;;5046962;28;20486;-76
2023/10/04 07:38:00;;;;;;;9.43;6.70;;;14.90;99.90;;;;;;5045541;28;20049;-77
2023/10/04 07:40:30;;;;;;;8.93;6.18;;;14.80;99.90;;;;;;5039356;28;20517;-76
2023/10/04 07:42:59;;;;;;;9.32;5.90;;;14.80;99.90;;;;;;5052144;28;20049;-76
2023/10/04 07:45:28;;;;;;;7.88;5.57;;;14.80;99.90;;;;;;5048401;28;20046;-77
2023/10/04 07:47:56;;;;;;;14.23;5.70;;;14.80;99.90;;;;;;5048370;28;20046;-76
2023/10/04 07:50:25;;;;;;;10.65;5.68;;;14.80;99.90;;;;;;5040463;28;20045;-77
2023/10/04 07:52:56;;;;;;;9.95;6.03;;;14.80;99.90;;;;;;5032601;28;20048;-76
2023/10/04 07:55:25;;;;;;;6.53;5.07;;;14.70;99.90;;;;;;5039273;28;20053;-77
2023/10/04 07:57:58;;;;;;;7.53;6.10;;;14.70;99.90;;;;;;5049203;28;20133;-76
2023/10/04 08:00:25;;;;;;;9.23;6.25;;;14.70;99.90;;;;;;5045847;28;20051;-76
2023/10/04 08:02:52;;;;;;;8.00;6.03;;;14.80;99.90;;;;;;5046774;28;20136;-76
2023/10/04 08:05:20;;;;;;;7.75;5.97;;;14.80;99.90;;;;;;5039941;28;20038;-77
2023/10/04 08:07:51;;;;;;;8.48;5.63;;;14.80;99.90;;;;;;5026030;28;20072;-76
2023/10/04 08:10:23;;;;;;;9.80;5.97;;;14.80;99.90;;;;;;5043861;28;20069;-76
2023/10/04 08:12:52;;;;;;;8.07;5.47;;;14.90;99.90;;;;;;5047947;28;20059;-77
2023/10/04 08:15:21;;;;;;;8.63;5.63;;;14.90;99.90;;;;;;5045476;28;20048;-77
2023/10/04 08:17:49;;;;;;;9.88;6.03;;;15.00;99.90;;;;;;5046597;28;20064;-76
2023/10/04 08:20:16;;;;;;;12.68;8.40;;;15.20;99.90;;;;;;5038773;28;20052;-77
2023/10/04 08:22:44;;;;;;;16.45;9.32;;;15.20;99.90;;;;;;5045185;28;20049;-76
2023/10/04 08:25:13;;;;;;;14.18;10.52;;;15.40;99.90;;;;;;5036472;28;20419;-77
2023/10/04 08:27:40;;;;;;;15.02;10.57;;;15.40;99.90;;;;;;5045513;28;20053;-77
2023/10/04 08:30:12;;;;;;;16.17;9.98;;;15.50;99.90;;;;;;5046359;28;20134;-77
2023/10/04 08:32:41;;;;;;;17.30;10.45;;;15.40;99.90;;;;;;5046601;28;20144;-76
2023/10/04 08:35:21;;;;;;;16.05;10.77;;;15.40;99.90;;;;;;5039404;28;20134;-76
2023/10/04 08:37:52;;;;;;;13.27;9.95;;;15.30;99.90;;;;;;5046957;28;20059;-76
2023/10/04 08:40:24;;;;;;;16.52;10.98;;;15.30;99.90;;;;;;5048029;28;20051;-77
2023/10/04 08:42:51;;;;;;;16.95;10.05;;;15.30;99.90;;;;;;5046670;28;20563;-77
2023/10/04 08:45:22;;;;;;;17.02;9.85;;;15.30;99.90;;;;;;5043628;28;20036;-76
2023/10/04 08:47:51;;;;;;;13.98;9.48;;;15.40;99.90;;;;;;5044854;28;20048;-76
2023/10/04 08:50:51;;;;;;;15.88;9.85;;;15.50;99.90;;;;;;5028243;28;20111;-77
2023/10/04 08:53:44;;;;;;;14.07;10.10;;;15.70;99.90;;;;;;5044930;28;20051;-76
2023/10/04 08:56:15;;;;;;;16.50;9.77;;;15.80;99.90;;;;;;5051804;28;20091;-77
2023/10/04 08:58:43;;;;;;;13.73;9.48;;;15.90;99.90;;;;;;5042535;28;20471;-77
2023/10/04 09:01:11;;;;;;;14.82;10.13;;;16.00;99.90;;;;;;5044757;28;20045;-77
2023/10/04 09:03:40;;;;;;;14.65;9.55;;;16.10;99.90;;;;;;5041450;28;20072;-76
2023/10/04 09:06:10;;;;;;;14.85;9.15;;;16.10;99.90;;;;;;5037450;28;20048;-77
2023/10/04 09:08:41;;;;;;;14.30;9.50;;;16.20;99.90;;;;;;5048584;28;20053;-77
2023/10/04 09:11:12;;;;;;;15.35;9.73;;;16.20;99.90;;;;;;5050411;28;20110;-77
2023/10/04 09:13:44;;;;;;;13.50;9.13;;;16.20;99.90;;;;;;5046645;28;20060;-77
2023/10/04 09:16:23;;;;;;;12.07;8.77;;;16.30;99.90;;;;;;5043605;28;20095;-77
2023/10/04 09:19:17;;;;;;;18.15;10.25;;;16.30;99.90;;;;;;5040770;28;20049;-77
2023/10/04 09:21:44;;;;;;;16.10;9.43;;;16.40;99.90;;;;;;5034057;28;20412;-77
2023/10/04 09:24:13;;;;;;;17.92;10.48;;;16.50;99.90;;;;;;5050357;28;20048;-77
2023/10/04 09:26:52;;;;;;;17.65;11.13;;;16.50;99.90;;;;;;5041849;28;20505;-76
2023/10/04 09:29:33;;;;;;;17.23;11.35;;;16.50;99.90;;;;;;5030754;28;20492;-77
2023/10/04 09:32:00;;;;;;;19.30;12.57;;;16.50;99.90;;;;;;5029123;28;20084;-76
2023/10/04 09:34:28;;;;;;;18.85;11.75;;;16.30;99.90;;;;;;5037820;28;20072;-77
2023/10/04 09:36:55;;;;;;;17.58;11.23;;;16.30;99.90;;;;;;5046720;28;20068;-76
2023/10/04 09:39:28;;;;;;;16.02;11.55;;;16.30;99.90;;;;;;5047066;28;20048;-76
2023/10/04 09:41:56;;;;;;;16.27;11.35;;;16.30;99.90;;;;;;5045192;28;20429;-76
2023/10/04 09:44:27;;;;;;;22.38;13.60;;;16.30;99.90;;;;;;5040602;28;20041;-77
2023/10/04 09:46:54;;;;;;;23.48;14.25;;;16.30;99.90;;;;;;5046167;28;20098;-76
2023/10/04 09:49:22;;;;;;;21.45;15.35;;;16.40;99.90;;;;;;5029986;28;20520;-77
2023/10/04 09:51:52;;;;;;;24.20;14.93;;;16.50;99.90;;;;;;5046406;28;20045;-77
2023/10/04 09:54:20;;;;;;;20.67;13.48;;;16.60;99.90;;;;;;5029247;28;20075;-77
2023/10/04 09:56:49;;;;;;;16.52;12.80;;;16.70;99.90;;;;;;5045704;28;20050;-76
2023/10/04 09:59:20;;;;;;;16.45;11.35;;;16.80;99.90;;;;;;5039795;28;20048;-77
2023/10/04 10:01:54;;;;;;;19.92;13.68;;;16.80;99.90;;;;;;5044002;28;20574;-76
2023/10/04 10:04:29;;;;;;;18.88;11.13;;;16.80;99.90;;;;;;5037044;28;20045;-77
2023/10/04 10:07:18;;;;;;;15.75;11.30;;;16.80;99.90;;;;;;5048742;28;20053;-76
2023/10/04 10:10:04;;;;;;;16.50;9.95;;;16.70;99.90;;;;;;5043649;28;20207;-77
2023/10/04 10:12:43;;;;;;;18.40;10.32;;;16.80;99.90;;;;;;5043836;28;20060;-76
2023/10/04 10:15:13;;;;;;;13.57;9.63;;;16.70;99.90;;;;;;5022412;28;20092;-77
2023/10/04 10:17:42;;;;;;;13.82;9.93;;;16.60;99.90;;;;;;5042014;28;20553;-77
2023/10/04 10:20:11;;;;;;;10.88;8.10;;;16.50;99.90;;;;;;5051293;28;20084;-77
2023/10/04 10:22:57;;;;;;;14.13;10.32;;;16.30;99.90;;;;;;5044749;28;20484;-77
2023/10/04 10:25:25;;;;;;;14.60;9.30;;;16.10;99.90;;;;;;5045169;28;20102;-77
2023/10/04 10:28:01;;;;;;;13.18;9.18;;;16.10;99.90;;;;;;5039076;28;20042;-76
2023/10/04 10:30:30;;;;;;;12.25;8.20;;;16.00;99.90;;;;;;5037778;28;20060;-77
2023/10/04 10:32:59;;;;;;;12.15;7.00;;;16.00;99.90;;;;;;5038328;28;20111;-76
2023/10/04 10:35:57;;;;;;;12.95;7.28;;;16.00;99.90;;;;;;5054231;28;20048;-77
2023/10/04 10:38:31;;;;;;;11.55;7.20;;;16.00;99.90;;;;;;5042753;28;20049;-77
2023/10/04 10:40:57;;;;;;;11.35;5.75;;;16.00;99.90;;;;;;5046889;28;20096;-77
2023/10/04 10:43:24;;;;;;;14.25;5.65;;;16.00;99.90;;;;;;5038690;28;20487;-76
2023/10/04 10:45:51;;;;;;;8.82;5.68;;;16.10;99.90;;;;;;5042397;28;20053;-76
2023/10/04 10:48:30;;;;;;;8.98;5.75;;;16.10;99.90;;;;;;5049224;28;20056;-77
2023/10/04 10:50:57;;;;;;;7.15;4.93;;;16.10;99.90;;;;;;5047110;28;20053;-77
2023/10/04 10:53:24;;;;;;;6.80;5.13;;;16.10;99.90;;;;;;5043204;28;20437;-76
2023/10/04 10:55:51;;;;;;;7.10;4.28;;;16.10;99.90;;;;;;5048300;28;20053;-77
2023/10/04 10:58:18;;;;;;;8.93;4.20;;;16.00;99.90;;;;;;5024462;28;20069;-76
2023/10/04 11:00:46;;;;;;;6.50;4.00;;;16.10;99.90;;;;;;5046345;28;20130;-77
2023/10/04 11:03:13;;;;;;;8.13;3.47;;;16.10;99.90;;;;;;5051987;28;20044;-77
2023/10/04 11:05:41;;;;;;;7.38;3.88;;;16.20;99.90;;;;;;5050659;28;20354;-76
2023/10/04 11:08:12;;;;;;;9.57;3.78;;;16.30;99.90;;;;;;5045973;28;20128;-77
2023/10/04 11:10:40;;;;;;;6.05;3.38;;;16.30;99.90;;;;;;5036598;28;20428;-76
2023/10/04 11:13:10;;;;;;;5.57;3.28;;;16.30;99.90;;;;;;5037165;28;20048;-76
2023/10/04 11:15:37;;;;;;;5.13;2.63;;;16.40;99.90;;;;;;5047440;28;20048;-77
2023/10/04 11:18:06;;;;;;;5.18;2.38;;;16.40;99.90;;;;;;5050356;28;20049;-76
2023/10/04 11:20:36;;;;;;;5.07;2.33;;;16.50;99.90;;;;;;5050807;28;20045;-77
2023/10/04 11:23:03;;;;;;;5.67;2.93;;;16.50;99.90;;;;;;5043006;28;20128;-77
2023/10/04 11:25:31;;;;;;;6.07;2.60;;;16.60;99.90;;;;;;5043417;28;20102;-77
2023/10/04 11:27:58;;;;;;;5.65;2.75;;;16.60;99.90;;;;;;5033479;28;20132;-76
2023/10/04 11:30:27;;;;;;;5.85;2.50;;;16.70;99.90;;;;;;5046913;28;20091;-77
2023/10/04 11:32:56;;;;;;;5.60;2.50;;;16.70;99.90;;;;;;5048990;28;20056;-77
2023/10/04 11:35:34;;;;;;;4.32;2.05;;;16.80;99.90;;;;;;5050595;28;20063;-77
2023/10/04 11:38:05;;;;;;;5.72;2.85;;;16.80;99.90;;;;;;5041248;28;20059;-77
2023/10/04 11:40:33;;;;;;;7.18;3.30;;;16.90;99.90;;;;;;5044928;28;20049;-77
2023/10/04 11:43:01;;;;;;;5.10;2.30;;;16.90;99.90;;;;;;5039181;28;20073;-77
2023/10/04 11:45:29;;;;;;;6.35;2.85;;;16.90;99.90;;;;;;5047039;28;20056;-77
2023/10/04 11:48:01;;;;;;;3.63;2.10;;;17.00;99.90;;;;;;5047356;28;20124;-77
2023/10/04 11:50:41;;;;;;;5.10;2.10;;;17.00;99.90;;;;;;5051682;28;20562;-77
2023/10/04 11:53:07;;;;;;;4.03;2.20;;;17.00;99.90;;;;;;5043571;28;20053;-76
2023/10/04 11:55:37;;;;;;;4.60;1.98;;;17.10;99.90;;;;;;5044476;28;20048;-76
2023/10/04 11:58:06;;;;;;;6.35;3.03;;;17.10;99.90;;;;;;5039195;28;20057;-76
2023/10/04 12:00:33;;;;;;;4.47;2.13;;;17.20;99.90;;;;;;5049288;28;20040;-77
2023/10/04 12:02:59;;;;;;;5.75;2.30;;;17.20;99.90;;;;;;5046042;28;20045;-77
2023/10/04 12:05:27;;;;;;;5.53;2.38;;;17.30;99.90;;;;;;5048364;28;20123;-77
2023/10/04 12:07:58;;;;;;;4.30;2.17;;;17.30;99.90;;;;;;5038799;28;20633;-78
2023/10/04 12:10:25;;;;;;;3.63;2.00;;;17.40;99.90;;;;;;5047805;28;20067;-77
2023/10/04 12:12:54;;;;;;;5.05;1.92;;;17.40;99.90;;;;;;5043196;28;20045;-76
2023/10/04 12:15:21;;;;;;;3.03;1.70;;;17.50;99.90;;;;;;5052150;28;20045;-77
2023/10/04 12:17:49;;;;;;;3.85;2.30;;;17.50;99.90;;;;;;5044649;28;20045;-77
2023/10/04 12:20:20;;;;;;;5.32;1.90;;;17.50;99.90;;;;;;5047800;28;20489;-77
2023/10/04 12:22:48;;;;;;;4.45;1.58;;;17.60;99.90;;;;;;5038065;28;20046;-76
2023/10/04 12:25:15;;;;;;;5.93;1.95;;;17.60;99.90;;;;;;5046416;28;20473;-77
2023/10/04 12:27:43;;;;;;;6.57;2.38;;;17.70;99.90;;;;;;5025672;28;20098;-76
2023/10/04 12:30:11;;;;;;;5.68;1.90;;;17.70;99.90;;;;;;5032250;28;20045;-76
2023/10/04 12:32:38;;;;;;;5.25;2.15;;;17.80;99.90;;;;;;5043975;28;20125;-77
2023/10/04 12:35:06;;;;;;;7.13;2.45;;;17.90;99.90;;;;;;5045670;28;20045;-77
2023/10/04 12:37:33;;;;;;;3.40;1.88;;;18.00;99.90;;;;;;5036679;28;20041;-75
2023/10/04 12:40:00;;;;;;;5.32;1.95;;;18.00;99.90;;;;;;5044523;28;20598;-77
2023/10/04 12:42:28;;;;;;;2.28;1.63;;;18.10;99.90;;;;;;5046566;28;20520;-77
2023/10/04 12:44:58;;;;;;;3.03;1.52;;;18.10;99.90;;;;;;5048709;28;20497;-77
2023/10/04 12:47:25;;;;;;;7.32;1.90;;;18.20;99.90;;;;;;5044957;28;20053;-77
2023/10/04 12:49:53;;;;;;;4.90;2.30;;;18.30;99.90;;;;;;5045222;28;20069;-77
2023/10/04 12:52:24;;;;;;;3.75;1.80;;;18.30;99.90;;;;;;5038340;28;20049;-77
2023/10/04 12:54:51;;;;;;;3.47;2.13;;;18.40;99.90;;;;;;5043581;28;20505;-76
2023/10/04 12:57:18;;;;;;;3.38;1.70;;;18.40;99.90;;;;;;5047825;28;20128;-77